EXS61M LEIB-EGKK
Flight info
| Callsign | EXS61M |
|---|---|
| Flight time | N/A |
| Altitude | 38000 |
| Route | EPAMA N856 UMURE N863 GIROM DCT GONUP DCT MANAK DCT EPAPU UM184 EKRAS UT507 REVTU UP88 VASUX |
| Aircraft | A21N/M-SDE3FGHIRWY/LB1 |
Departure
| Time | 2026-05-07 20:14 |
|---|---|
| Airport | Ibiza Airport (LEIB) |
Arrival
| Time | N/A |
|---|---|
| Airport | London Gatwick Airport (EGKK) |
| Time | Latitude | Longitude | Altitude | Speed | Heading |
|---|---|---|---|---|---|
| 2026-05-07 19:54 | 38.87502 | 1.36801 | 32 ft | 0 kts | 16° |
| 2026-05-07 20:04 | 38.87501 | 1.36801 | 32 ft | 0 kts | 17° |
| 2026-05-07 20:04 | 38.87494 | 1.36798 | 32 ft | 2 kts | 15° |
| 2026-05-07 20:04 | 38.87479 | 1.36799 | 30 ft | 2 kts | 336° |
| 2026-05-07 20:05 | 38.87466 | 1.36810 | 28 ft | 2 kts | 306° |
| 2026-05-07 20:05 | 38.87460 | 1.36828 | 28 ft | 2 kts | 278° |
| 2026-05-07 20:05 | 38.87461 | 1.36847 | 29 ft | 1 kts | 249° |
| 2026-05-07 20:05 | 38.87463 | 1.36854 | 29 ft | 1 kts | 239° |
| 2026-05-07 20:06 | 38.87465 | 1.36858 | 30 ft | 0 kts | 242° |
| 2026-05-07 20:08 | 38.87465 | 1.36857 | 30 ft | 0 kts | 242° |
| 2026-05-07 20:08 | 38.87452 | 1.36827 | 28 ft | 6 kts | 240° |
| 2026-05-07 20:08 | 38.87398 | 1.36799 | 24 ft | 11 kts | 165° |
| 2026-05-07 20:08 | 38.87322 | 1.36842 | 21 ft | 11 kts | 158° |
| 2026-05-07 20:09 | 38.87267 | 1.36812 | 20 ft | 8 kts | 237° |
| 2026-05-07 20:09 | 38.87239 | 1.36748 | 19 ft | 8 kts | 240° |
| 2026-05-07 20:09 | 38.87206 | 1.36670 | 19 ft | 10 kts | 242° |
| 2026-05-07 20:10 | 38.87130 | 1.36485 | 19 ft | 11 kts | 242° |
| 2026-05-07 20:10 | 38.87091 | 1.36392 | 20 ft | 11 kts | 242° |
| 2026-05-07 20:10 | 38.87050 | 1.36293 | 20 ft | 13 kts | 242° |
| 2026-05-07 20:10 | 38.87007 | 1.36189 | 20 ft | 13 kts | 242° |
| 2026-05-07 20:11 | 38.86959 | 1.36075 | 18 ft | 15 kts | 242° |
| 2026-05-07 20:11 | 38.86906 | 1.35945 | 15 ft | 16 kts | 242° |
| 2026-05-07 20:11 | 38.86858 | 1.35828 | 12 ft | 10 kts | 242° |
| 2026-05-07 20:11 | 38.86825 | 1.35766 | 12 ft | 6 kts | 207° |
| 2026-05-07 20:12 | 38.86789 | 1.35770 | 12 ft | 4 kts | 160° |
| 2026-05-07 20:12 | 38.86764 | 1.35793 | 12 ft | 5 kts | 130° |
| 2026-05-07 20:12 | 38.86742 | 1.35842 | 12 ft | 7 kts | 115° |
| 2026-05-07 20:12 | 38.86718 | 1.35911 | 13 ft | 8 kts | 106° |
| 2026-05-07 20:13 | 38.86731 | 1.35976 | 12 ft | 0 kts | 63° |
| 2026-05-07 20:13 | 38.86746 | 1.36014 | 13 ft | 16 kts | 62° |
| 2026-05-07 20:13 | 38.86912 | 1.36414 | 18 ft | 86 kts | 61° |
| 2026-05-07 20:14 | 38.87294 | 1.37337 | 26 ft | 146 kts | 61° |
| 2026-05-07 20:14 | 38.87827 | 1.38629 | 335 ft | 169 kts | 64° |
| 2026-05-07 20:14 | 38.88337 | 1.39926 | 1090 ft | 164 kts | 67° |
| 2026-05-07 20:14 | 38.88604 | 1.41327 | 1774 ft | 166 kts | 82° |
| 2026-05-07 20:15 | 38.88779 | 1.42829 | 2251 ft | 177 kts | 79° |
| 2026-05-07 20:15 | 38.89032 | 1.44425 | 2654 ft | 193 kts | 78° |
| 2026-05-07 20:15 | 38.89334 | 1.46168 | 3161 ft | 205 kts | 77° |
| 2026-05-07 20:15 | 38.89660 | 1.47981 | 3762 ft | 214 kts | 75° |
| 2026-05-07 20:16 | 38.90008 | 1.49778 | 4614 ft | 209 kts | 75° |
| 2026-05-07 20:16 | 38.90356 | 1.51576 | 5330 ft | 211 kts | 75° |
| 2026-05-07 20:16 | 38.90773 | 1.53400 | 6023 ft | 215 kts | 66° |
| 2026-05-07 20:16 | 38.91568 | 1.55005 | 6667 ft | 221 kts | 47° |
| 2026-05-07 20:17 | 38.92710 | 1.56404 | 7098 ft | 237 kts | 43° |
| 2026-05-07 20:17 | 38.93988 | 1.57854 | 7524 ft | 254 kts | 42° |
| 2026-05-07 20:17 | 38.95361 | 1.59407 | 7959 ft | 271 kts | 43° |
| 2026-05-07 20:17 | 38.96791 | 1.61044 | 8586 ft | 279 kts | 43° |
| 2026-05-07 20:18 | 38.98236 | 1.62715 | 9348 ft | 282 kts | 43° |
| 2026-05-07 20:18 | 38.99758 | 1.64358 | 10049 ft | 288 kts | 34° |
| 2026-05-07 20:18 | 39.01585 | 1.65400 | 10720 ft | 295 kts | 15° |
| 2026-05-07 20:18 | 39.03621 | 1.65797 | 11437 ft | 298 kts | 7° |
| 2026-05-07 20:19 | 39.05687 | 1.66046 | 12100 ft | 302 kts | 6° |
| 2026-05-07 20:19 | 39.07806 | 1.66284 | 12768 ft | 306 kts | 4° |
| 2026-05-07 20:19 | 39.09922 | 1.66128 | 13398 ft | 310 kts | 349° |
| 2026-05-07 20:19 | 39.12008 | 1.65306 | 13844 ft | 320 kts | 337° |
| 2026-05-07 20:20 | 39.14100 | 1.64149 | 14250 ft | 331 kts | 335° |
| 2026-05-07 20:20 | 39.16214 | 1.62931 | 14876 ft | 335 kts | 334° |
| 2026-05-07 20:20 | 39.18342 | 1.61711 | 15534 ft | 337 kts | 334° |
| 2026-05-07 20:20 | 39.20496 | 1.60483 | 16171 ft | 340 kts | 334° |
| 2026-05-07 20:21 | 39.22676 | 1.59249 | 16791 ft | 343 kts | 334° |
| 2026-05-07 20:21 | 39.24853 | 1.58024 | 17388 ft | 346 kts | 334° |
| 2026-05-07 20:21 | 39.27077 | 1.56774 | 17969 ft | 349 kts | 334° |
| 2026-05-07 20:21 | 39.29290 | 1.55532 | 18524 ft | 352 kts | 333° |
| 2026-05-07 20:22 | 39.31544 | 1.54266 | 19080 ft | 356 kts | 333° |
| 2026-05-07 20:22 | 39.33816 | 1.52991 | 19624 ft | 359 kts | 332° |
| 2026-05-07 20:22 | 39.36109 | 1.51705 | 20148 ft | 362 kts | 332° |
| 2026-05-07 20:22 | 39.38429 | 1.50400 | 20666 ft | 366 kts | 332° |
| 2026-05-07 20:23 | 39.40761 | 1.49086 | 21163 ft | 369 kts | 331° |
| 2026-05-07 20:23 | 39.43136 | 1.47749 | 21659 ft | 373 kts | 331° |
| 2026-05-07 20:23 | 39.45516 | 1.46406 | 22144 ft | 376 kts | 331° |
| 2026-05-07 20:23 | 39.47909 | 1.45057 | 22621 ft | 379 kts | 330° |
| 2026-05-07 20:24 | 39.50337 | 1.43685 | 23093 ft | 382 kts | 330° |
| 2026-05-07 20:24 | 39.52799 | 1.42293 | 23553 ft | 385 kts | 330° |
| 2026-05-07 20:24 | 39.55244 | 1.40910 | 24003 ft | 388 kts | 330° |
| 2026-05-07 20:24 | 39.57728 | 1.39514 | 24438 ft | 392 kts | 332° |
| 2026-05-07 20:25 | 39.60316 | 1.38373 | 24864 ft | 400 kts | 339° |
| 2026-05-07 20:25 | 39.63068 | 1.37631 | 25275 ft | 408 kts | 346° |
| 2026-05-07 20:25 | 39.65883 | 1.37199 | 25676 ft | 413 kts | 348° |
| 2026-05-07 20:25 | 39.68751 | 1.36836 | 26067 ft | 416 kts | 349° |
| 2026-05-07 20:26 | 39.71643 | 1.36479 | 26458 ft | 418 kts | 349° |
| 2026-05-07 20:26 | 39.74558 | 1.36116 | 26837 ft | 420 kts | 349° |
| 2026-05-07 20:26 | 39.77453 | 1.35746 | 27210 ft | 423 kts | 349° |
| 2026-05-07 20:26 | 39.80384 | 1.35364 | 27563 ft | 425 kts | 349° |
| 2026-05-07 20:27 | 39.83328 | 1.34976 | 27922 ft | 427 kts | 348° |
| 2026-05-07 20:27 | 39.86303 | 1.34581 | 28273 ft | 430 kts | 348° |
| 2026-05-07 20:27 | 39.89310 | 1.34179 | 28625 ft | 432 kts | 348° |
| 2026-05-07 20:27 | 39.92310 | 1.33780 | 28970 ft | 434 kts | 348° |
| 2026-05-07 20:28 | 39.95290 | 1.33383 | 29291 ft | 436 kts | 348° |
| 2026-05-07 20:28 | 39.98325 | 1.32977 | 29611 ft | 438 kts | 348° |
| 2026-05-07 20:28 | 40.01390 | 1.32567 | 29921 ft | 441 kts | 348° |
| 2026-05-07 20:28 | 40.04446 | 1.32157 | 30229 ft | 443 kts | 348° |
| 2026-05-07 20:29 | 40.07521 | 1.31746 | 30528 ft | 445 kts | 348° |
| 2026-05-07 20:29 | 40.10594 | 1.31335 | 30796 ft | 447 kts | 348° |
| 2026-05-07 20:29 | 40.13726 | 1.30916 | 31079 ft | 449 kts | 348° |
| 2026-05-07 20:29 | 40.16839 | 1.30498 | 31340 ft | 451 kts | 348° |
| 2026-05-07 20:30 | 40.19964 | 1.30077 | 31607 ft | 453 kts | 348° |
| 2026-05-07 20:30 | 40.23077 | 1.29658 | 31866 ft | 454 kts | 348° |
| 2026-05-07 20:30 | 40.26230 | 1.29235 | 32119 ft | 456 kts | 348° |
| 2026-05-07 20:30 | 40.29401 | 1.28805 | 32365 ft | 457 kts | 348° |
| 2026-05-07 20:31 | 40.32570 | 1.28376 | 32588 ft | 459 kts | 348° |
| 2026-05-07 20:31 | 40.35739 | 1.27948 | 32797 ft | 461 kts | 348° |
| 2026-05-07 20:31 | 40.38928 | 1.27518 | 33019 ft | 462 kts | 348° |
| 2026-05-07 20:31 | 40.42132 | 1.27086 | 33247 ft | 463 kts | 348° |
| 2026-05-07 20:32 | 40.45343 | 1.26652 | 33464 ft | 464 kts | 348° |
| 2026-05-07 20:32 | 40.48582 | 1.26211 | 33647 ft | 466 kts | 348° |
| 2026-05-07 20:32 | 40.51801 | 1.25774 | 33827 ft | 467 kts | 348° |
| 2026-05-07 20:32 | 40.55041 | 1.25333 | 34039 ft | 468 kts | 348° |
| 2026-05-07 20:33 | 40.58257 | 1.24893 | 34218 ft | 469 kts | 348° |
| 2026-05-07 20:33 | 40.61528 | 1.24447 | 34378 ft | 471 kts | 348° |
| 2026-05-07 20:33 | 40.64793 | 1.24002 | 34558 ft | 472 kts | 348° |
| 2026-05-07 20:33 | 40.68019 | 1.23560 | 34692 ft | 473 kts | 348° |
| 2026-05-07 20:34 | 40.71309 | 1.23113 | 34831 ft | 474 kts | 348° |
| 2026-05-07 20:34 | 40.74598 | 1.22665 | 34964 ft | 474 kts | 348° |
| 2026-05-07 20:34 | 40.77860 | 1.22219 | 35098 ft | 475 kts | 348° |
| 2026-05-07 20:34 | 40.81176 | 1.21766 | 35225 ft | 476 kts | 349° |
| 2026-05-07 20:35 | 40.84445 | 1.21318 | 35346 ft | 476 kts | 348° |
| 2026-05-07 20:35 | 40.87739 | 1.20867 | 35466 ft | 477 kts | 349° |
| 2026-05-07 20:35 | 40.91028 | 1.20414 | 35567 ft | 478 kts | 349° |
| 2026-05-07 20:35 | 40.94328 | 1.19959 | 35690 ft | 478 kts | 349° |
| 2026-05-07 20:36 | 40.97651 | 1.19501 | 35843 ft | 477 kts | 349° |
| 2026-05-07 20:36 | 41.00963 | 1.19044 | 35992 ft | 475 kts | 349° |
| 2026-05-07 20:36 | 41.04239 | 1.18592 | 36130 ft | 475 kts | 349° |
| 2026-05-07 20:36 | 41.07506 | 1.18141 | 36251 ft | 474 kts | 349° |
| 2026-05-07 20:37 | 41.10809 | 1.17684 | 36374 ft | 473 kts | 349° |
| 2026-05-07 20:37 | 41.17398 | 1.16812 | 36566 ft | 474 kts | 350° |
| 2026-05-07 20:38 | 41.23957 | 1.16159 | 36750 ft | 474 kts | 351° |
| 2026-05-07 20:38 | 41.27261 | 1.15825 | 36865 ft | 473 kts | 351° |
| 2026-05-07 20:38 | 41.30522 | 1.15486 | 36948 ft | 473 kts | 351° |
| 2026-05-07 20:39 | 41.37055 | 1.14799 | 37111 ft | 473 kts | 351° |
| 2026-05-07 20:39 | 41.43637 | 1.14105 | 37270 ft | 473 kts | 351° |
| 2026-05-07 20:40 | 41.50200 | 1.13413 | 37445 ft | 473 kts | 351° |
| 2026-05-07 20:40 | 41.56723 | 1.12722 | 37591 ft | 473 kts | 351° |
| 2026-05-07 20:41 | 41.63258 | 1.12032 | 37758 ft | 472 kts | 351° |
| 2026-05-07 20:41 | 41.69839 | 1.11333 | 37880 ft | 472 kts | 351° |
| 2026-05-07 20:42 | 41.76352 | 1.10643 | 37978 ft | 472 kts | 351° |
| 2026-05-07 20:42 | 41.82943 | 1.09944 | 37981 ft | 473 kts | 351° |
| 2026-05-07 20:43 | 41.89455 | 1.09250 | 37977 ft | 472 kts | 351° |
| 2026-05-07 20:43 | 41.95989 | 1.08550 | 37982 ft | 471 kts | 351° |
| 2026-05-07 20:44 | 42.02571 | 1.07841 | 37979 ft | 472 kts | 351° |
| 2026-05-07 20:44 | 42.09121 | 1.07136 | 37984 ft | 472 kts | 351° |
| 2026-05-07 20:45 | 42.15623 | 1.06437 | 37982 ft | 472 kts | 351° |
| 2026-05-07 20:45 | 42.22229 | 1.05727 | 37985 ft | 472 kts | 352° |
| 2026-05-07 20:46 | 42.28754 | 1.05027 | 37982 ft | 472 kts | 352° |
| 2026-05-07 20:46 | 42.35284 | 1.04320 | 37979 ft | 471 kts | 352° |
| 2026-05-07 20:47 | 42.41843 | 1.03609 | 37978 ft | 471 kts | 352° |
| 2026-05-07 20:47 | 42.48347 | 1.02903 | 37978 ft | 470 kts | 351° |
| 2026-05-07 20:48 | 42.54862 | 1.02192 | 37979 ft | 470 kts | 351° |
| 2026-05-07 20:48 | 42.61383 | 1.01477 | 37980 ft | 470 kts | 352° |
| 2026-05-07 20:49 | 42.67887 | 1.00762 | 37975 ft | 470 kts | 352° |
| 2026-05-07 20:49 | 42.74425 | 1.00012 | 37973 ft | 469 kts | 350° |
| 2026-05-07 20:50 | 42.80834 | 0.98568 | 37977 ft | 465 kts | 343° |
| 2026-05-07 20:50 | 42.87078 | 0.96460 | 37972 ft | 465 kts | 342° |
| 2026-05-07 20:51 | 42.93357 | 0.94266 | 37962 ft | 464 kts | 342° |
| 2026-05-07 20:51 | 42.99588 | 0.92099 | 37962 ft | 464 kts | 342° |
| 2026-05-07 20:52 | 43.05859 | 0.89925 | 37975 ft | 463 kts | 342° |
| 2026-05-07 20:52 | 43.12107 | 0.87756 | 37974 ft | 462 kts | 342° |
| 2026-05-07 20:53 | 43.18299 | 0.85598 | 37973 ft | 463 kts | 342° |
| 2026-05-07 20:53 | 43.24538 | 0.83422 | 37980 ft | 462 kts | 342° |
| 2026-05-07 20:54 | 43.30782 | 0.81241 | 37983 ft | 462 kts | 342° |
| 2026-05-07 20:54 | 43.37011 | 0.79058 | 37983 ft | 461 kts | 342° |
| 2026-05-07 20:55 | 43.43209 | 0.76860 | 37989 ft | 460 kts | 341° |
| 2026-05-07 20:55 | 43.49245 | 0.74034 | 37984 ft | 457 kts | 334° |
| 2026-05-07 20:56 | 43.55077 | 0.70643 | 37988 ft | 456 kts | 333° |
| 2026-05-07 20:56 | 43.60903 | 0.67189 | 37996 ft | 456 kts | 333° |
| 2026-05-07 20:57 | 43.66719 | 0.63742 | 37999 ft | 455 kts | 333° |
| 2026-05-07 20:57 | 43.72687 | 0.60206 | 37997 ft | 455 kts | 333° |
| 2026-05-07 20:58 | 43.78498 | 0.56760 | 38003 ft | 455 kts | 333° |
| 2026-05-07 20:58 | 43.84285 | 0.53321 | 38002 ft | 454 kts | 333° |
| 2026-05-07 20:59 | 43.90116 | 0.49848 | 38001 ft | 454 kts | 333° |
| 2026-05-07 20:59 | 43.95890 | 0.46403 | 38000 ft | 454 kts | 333° |
| 2026-05-07 21:00 | 43.99795 | 0.44070 | 38009 ft | 454 kts | 333° |
| 2026-05-07 21:00 | 44.04750 | 0.41104 | 38003 ft | 454 kts | 333° |
| 2026-05-07 21:01 | 44.10542 | 0.37629 | 38001 ft | 454 kts | 333° |
| 2026-05-07 21:01 | 44.16336 | 0.34146 | 38003 ft | 453 kts | 333° |
| 2026-05-07 21:02 | 44.22127 | 0.30658 | 38000 ft | 453 kts | 333° |